Crabtree, Arkansas
Current Conditions -  °F | °C
As of 9:55 PM on Thursday 18 Dec 2014 (Local Time) from KCCA Reporting Station
Haze Haze  
Wind Chill: 41°   Ceiling: 900
Heat Index: 41°   Visibility: 3mi
Dew Point: 39°   Wind: 0mph
Humidity: 93%   Direction: NA
Pressure: 30.26"   Gusts: NA
Location:  35.6269°N, 92.5508°W
Report Text: KCCA 190355Z AUTO 00000KT 3SM BR OVC009 05/04 A3026 RMK AO2
Loading
Personal Weather Stations






























Interactive Weather Map New forecast layout! Learn more

10-Day Weather Forecast

Advertisements
Track Severe Weather on mobile